sensor_id;sensor_type;location;lat;lon;timestamp;temperature;humidity
6758;DHT22;3416;53.074;8.822;2023-04-15T00:00:58;9.50;99.90
6758;DHT22;3416;53.074;8.822;2023-04-15T00:03:26;9.50;99.90
6758;DHT22;3416;53.074;8.822;2023-04-15T00:05:54;9.50;99.90
6758;DHT22;3416;53.074;8.822;2023-04-15T00:08:20;9.50;99.90
6758;DHT22;3416;53.074;8.822;2023-04-15T00:10:48;9.50;99.90
6758;DHT22;3416;53.074;8.822;2023-04-15T00:13:15;9.50;99.90
6758;DHT22;3416;53.074;8.822;2023-04-15T00:15:42;9.50;99.90
6758;DHT22;3416;53.074;8.822;2023-04-15T00:18:09;9.50;99.90
6758;DHT22;3416;53.074;8.822;2023-04-15T00:20:37;9.50;99.90
6758;DHT22;3416;53.074;8.822;2023-04-15T00:23:04;9.50;99.90
6758;DHT22;3416;53.074;8.822;2023-04-15T00:25:32;9.50;99.90
6758;DHT22;3416;53.074;8.822;2023-04-15T00:28:00;9.40;99.90
6758;DHT22;3416;53.074;8.822;2023-04-15T00:30:27;9.40;99.90
6758;DHT22;3416;53.074;8.822;2023-04-15T00:32:54;9.40;99.90
6758;DHT22;3416;53.074;8.822;2023-04-15T00:35:21;9.40;99.90
6758;DHT22;3416;53.074;8.822;2023-04-15T00:37:51;9.40;99.90
6758;DHT22;3416;53.074;8.822;2023-04-15T00:40:20;9.40;99.90
6758;DHT22;3416;53.074;8.822;2023-04-15T00:42:49;9.40;99.90
6758;DHT22;3416;53.074;8.822;2023-04-15T00:45:16;9.40;99.90
6758;DHT22;3416;53.074;8.822;2023-04-15T00:47:44;9.40;99.90
6758;DHT22;3416;53.074;8.822;2023-04-15T00:50:12;9.40;99.90
6758;DHT22;3416;53.074;8.822;2023-04-15T00:52:39;9.40;99.90
6758;DHT22;3416;53.074;8.822;2023-04-15T00:55:08;9.30;99.90
6758;DHT22;3416;53.074;8.822;2023-04-15T00:57:36;9.40;99.90
6758;DHT22;3416;53.074;8.822;2023-04-15T01:02:31;9.30;99.90
6758;DHT22;3416;53.074;8.822;2023-04-15T01:04:58;9.30;99.90
6758;DHT22;3416;53.074;8.822;2023-04-15T01:07:25;9.30;99.90
6758;DHT22;3416;53.074;8.822;2023-04-15T01:09:52;9.30;99.90
6758;DHT22;3416;53.074;8.822;2023-04-15T01:12:20;9.20;99.90
6758;DHT22;3416;53.074;8.822;2023-04-15T01:14:47;9.20;99.90
6758;DHT22;3416;53.074;8.822;2023-04-15T01:17:14;9.20;99.90
6758;DHT22;3416;53.074;8.822;2023-04-15T01:19:42;9.00;99.90
6758;DHT22;3416;53.074;8.822;2023-04-15T01:22:09;9.20;99.90
6758;DHT22;3416;53.074;8.822;2023-04-15T01:24:36;9.20;99.90
6758;DHT22;3416;53.074;8.822;2023-04-15T01:27:05;9.20;99.90
6758;DHT22;3416;53.074;8.822;2023-04-15T01:29:35;9.20;99.90
6758;DHT22;3416;53.074;8.822;2023-04-15T01:32:02;9.20;99.90
6758;DHT22;3416;53.074;8.822;2023-04-15T01:34:30;9.20;99.90
6758;DHT22;3416;53.074;8.822;2023-04-15T01:36:57;9.20;99.90
6758;DHT22;3416;53.074;8.822;2023-04-15T01:39:23;9.20;99.90
6758;DHT22;3416;53.074;8.822;2023-04-15T01:41:50;9.20;99.90
6758;DHT22;3416;53.074;8.822;2023-04-15T01:44:18;9.20;99.90
6758;DHT22;3416;53.074;8.822;2023-04-15T01:46:45;9.20;99.90
6758;DHT22;3416;53.074;8.822;2023-04-15T01:49:12;9.20;99.90
6758;DHT22;3416;53.074;8.822;2023-04-15T01:51:39;9.20;99.90
6758;DHT22;3416;53.074;8.822;2023-04-15T01:54:06;9.20;99.90
6758;DHT22;3416;53.074;8.822;2023-04-15T01:56:33;9.10;99.90
6758;DHT22;3416;53.074;8.822;2023-04-15T01:59:00;9.10;99.90
6758;DHT22;3416;53.074;8.822;2023-04-15T02:01:29;9.10;99.90
6758;DHT22;3416;53.074;8.822;2023-04-15T02:03:56;9.10;99.90
6758;DHT22;3416;53.074;8.822;2023-04-15T02:06:23;9.10;99.90
6758;DHT22;3416;53.074;8.822;2023-04-15T02:08:50;9.00;99.90
6758;DHT22;3416;53.074;8.822;2023-04-15T02:11:17;9.00;99.90
6758;DHT22;3416;53.074;8.822;2023-04-15T02:13:45;9.00;99.90
6758;DHT22;3416;53.074;8.822;2023-04-15T02:16:15;8.90;99.90
6758;DHT22;3416;53.074;8.822;2023-04-15T02:18:44;9.00;99.90
6758;DHT22;3416;53.074;8.822;2023-04-15T02:21:12;8.90;99.90
6758;DHT22;3416;53.074;8.822;2023-04-15T02:23:38;8.90;99.90
6758;DHT22;3416;53.074;8.822;2023-04-15T02:26:05;8.80;99.90
6758;DHT22;3416;53.074;8.822;2023-04-15T02:28:32;8.90;99.90
6758;DHT22;3416;53.074;8.822;2023-04-15T02:30:59;8.80;99.90
6758;DHT22;3416;53.074;8.822;2023-04-15T02:33:26;8.80;99.90
6758;DHT22;3416;53.074;8.822;2023-04-15T02:35:55;8.80;99.90
6758;DHT22;3416;53.074;8.822;2023-04-15T02:38:21;8.80;99.90
6758;DHT22;3416;53.074;8.822;2023-04-15T02:40:48;8.80;99.90
6758;DHT22;3416;53.074;8.822;2023-04-15T02:43:16;8.80;99.90
6758;DHT22;3416;53.074;8.822;2023-04-15T02:45:44;8.80;99.90
6758;DHT22;3416;53.074;8.822;2023-04-15T02:48:11;8.80;99.90
6758;DHT22;3416;53.074;8.822;2023-04-15T02:50:38;8.80;99.90
6758;DHT22;3416;53.074;8.822;2023-04-15T02:53:06;8.70;99.90
6758;DHT22;3416;53.074;8.822;2023-04-15T02:55:33;8.70;99.90
6758;DHT22;3416;53.074;8.822;2023-04-15T02:58:00;8.60;99.90
6758;DHT22;3416;53.074;8.822;2023-04-15T03:00:27;8.60;99.90
6758;DHT22;3416;53.074;8.822;2023-04-15T03:02:57;8.70;99.90
6758;DHT22;3416;53.074;8.822;2023-04-15T03:05:25;8.70;99.90
6758;DHT22;3416;53.074;8.822;2023-04-15T03:07:52;8.70;99.90
6758;DHT22;3416;53.074;8.822;2023-04-15T03:10:21;8.80;99.90
6758;DHT22;3416;53.074;8.822;2023-04-15T03:12:47;8.80;99.90
6758;DHT22;3416;53.074;8.822;2023-04-15T03:15:14;8.80;99.90
6758;DHT22;3416;53.074;8.822;2023-04-15T03:17:41;8.80;99.90
6758;DHT22;3416;53.074;8.822;2023-04-15T03:20:09;8.90;99.90
6758;DHT22;3416;53.074;8.822;2023-04-15T03:22:35;8.90;99.90
6758;DHT22;3416;53.074;8.822;2023-04-15T03:25:03;8.90;99.90
6758;DHT22;3416;53.074;8.822;2023-04-15T03:27:31;9.00;99.90
6758;DHT22;3416;53.074;8.822;2023-04-15T03:29:58;9.00;99.90
6758;DHT22;3416;53.074;8.822;2023-04-15T03:32:24;9.00;99.90
6758;DHT22;3416;53.074;8.822;2023-04-15T03:34:51;9.00;99.90
6758;DHT22;3416;53.074;8.822;2023-04-15T03:37:18;9.00;99.90
6758;DHT22;3416;53.074;8.822;2023-04-15T03:39:45;9.00;99.90
6758;DHT22;3416;53.074;8.822;2023-04-15T03:42:12;9.10;99.90
6758;DHT22;3416;53.074;8.822;2023-04-15T03:44:40;9.10;99.90
6758;DHT22;3416;53.074;8.822;2023-04-15T03:47:07;9.10;99.90
6758;DHT22;3416;53.074;8.822;2023-04-15T03:49:34;9.10;99.90
6758;DHT22;3416;53.074;8.822;2023-04-15T03:52:01;9.10;99.90
6758;DHT22;3416;53.074;8.822;2023-04-15T03:54:28;9.20;99.90
6758;DHT22;3416;53.074;8.822;2023-04-15T03:56:56;9.20;99.90
6758;DHT22;3416;53.074;8.822;2023-04-15T03:59:22;9.10;99.90
6758;DHT22;3416;53.074;8.822;2023-04-15T04:01:51;9.20;99.90
6758;DHT22;3416;53.074;8.822;2023-04-15T04:04:18;9.20;99.90
6758;DHT22;3416;53.074;8.822;2023-04-15T04:06:44;9.20;99.90
6758;DHT22;3416;53.074;8.822;2023-04-15T04:09:11;9.20;99.90
6758;DHT22;3416;53.074;8.822;2023-04-15T04:11:38;9.20;99.90
6758;DHT22;3416;53.074;8.822;2023-04-15T04:14:05;9.10;99.90
6758;DHT22;3416;53.074;8.822;2023-04-15T04:16:32;9.10;99.90
6758;DHT22;3416;53.074;8.822;2023-04-15T04:19:00;9.10;99.90
6758;DHT22;3416;53.074;8.822;2023-04-15T04:21:27;9.20;99.90
6758;DHT22;3416;53.074;8.822;2023-04-15T04:23:54;9.20;99.90
6758;DHT22;3416;53.074;8.822;2023-04-15T04:26:21;9.20;99.90
6758;DHT22;3416;53.074;8.822;2023-04-15T04:28:48;9.20;99.90
6758;DHT22;3416;53.074;8.822;2023-04-15T04:31:15;9.20;99.90
6758;DHT22;3416;53.074;8.822;2023-04-15T04:33:42;9.20;99.90
6758;DHT22;3416;53.074;8.822;2023-04-15T04:36:10;9.20;99.90
6758;DHT22;3416;53.074;8.822;2023-04-15T04:38:37;9.20;99.90
6758;DHT22;3416;53.074;8.822;2023-04-15T04:41:04;9.20;99.90
6758;DHT22;3416;53.074;8.822;2023-04-15T04:43:31;9.20;99.90
6758;DHT22;3416;53.074;8.822;2023-04-15T04:45:58;9.20;99.90
6758;DHT22;3416;53.074;8.822;2023-04-15T04:48:25;9.20;99.90
6758;DHT22;3416;53.074;8.822;2023-04-15T04:50:51;9.20;99.90
6758;DHT22;3416;53.074;8.822;2023-04-15T04:53:20;9.20;99.90
6758;DHT22;3416;53.074;8.822;2023-04-15T04:55:46;9.20;99.90
6758;DHT22;3416;53.074;8.822;2023-04-15T04:58:13;9.30;99.90
6758;DHT22;3416;53.074;8.822;2023-04-15T05:00:40;9.30;99.90
6758;DHT22;3416;53.074;8.822;2023-04-15T05:03:07;9.20;99.90
6758;DHT22;3416;53.074;8.822;2023-04-15T05:05:34;9.20;99.90
6758;DHT22;3416;53.074;8.822;2023-04-15T05:08:01;9.30;99.90
6758;DHT22;3416;53.074;8.822;2023-04-15T05:10:29;9.40;99.90
6758;DHT22;3416;53.074;8.822;2023-04-15T05:12:56;9.30;99.90
6758;DHT22;3416;53.074;8.822;2023-04-15T05:15:28;9.30;99.90
6758;DHT22;3416;53.074;8.822;2023-04-15T05:17:55;9.30;99.90
6758;DHT22;3416;53.074;8.822;2023-04-15T05:20:22;9.30;99.90
6758;DHT22;3416;53.074;8.822;2023-04-15T05:22:49;9.20;99.90
6758;DHT22;3416;53.074;8.822;2023-04-15T05:25:16;9.20;99.90
6758;DHT22;3416;53.074;8.822;2023-04-15T05:27:44;9.20;99.90
6758;DHT22;3416;53.074;8.822;2023-04-15T05:30:11;9.10;99.90
6758;DHT22;3416;53.074;8.822;2023-04-15T05:32:38;9.10;99.90
6758;DHT22;3416;53.074;8.822;2023-04-15T05:35:06;9.30;99.90
6758;DHT22;3416;53.074;8.822;2023-04-15T05:37:33;9.20;99.90
6758;DHT22;3416;53.074;8.822;2023-04-15T05:40:00;9.20;99.90
6758;DHT22;3416;53.074;8.822;2023-04-15T05:42:26;9.30;99.90
6758;DHT22;3416;53.074;8.822;2023-04-15T05:44:55;9.30;99.90
6758;DHT22;3416;53.074;8.822;2023-04-15T05:47:21;9.40;99.90
6758;DHT22;3416;53.074;8.822;2023-04-15T05:49:48;9.40;99.90
6758;DHT22;3416;53.074;8.822;2023-04-15T05:52:15;9.50;99.90
6758;DHT22;3416;53.074;8.822;2023-04-15T05:54:42;9.50;99.90
6758;DHT22;3416;53.074;8.822;2023-04-15T05:57:09;9.40;99.90
6758;DHT22;3416;53.074;8.822;2023-04-15T05:59:36;9.30;99.90
6758;DHT22;3416;53.074;8.822;2023-04-15T06:02:04;9.40;99.90
6758;DHT22;3416;53.074;8.822;2023-04-15T06:04:32;9.30;99.90
6758;DHT22;3416;53.074;8.822;2023-04-15T06:06:59;9.30;99.90
6758;DHT22;3416;53.074;8.822;2023-04-15T06:09:26;9.40;99.90
6758;DHT22;3416;53.074;8.822;2023-04-15T06:11:53;9.50;99.90
6758;DHT22;3416;53.074;8.822;2023-04-15T06:14:20;9.50;99.90
6758;DHT22;3416;53.074;8.822;2023-04-15T06:16:49;9.40;99.90
6758;DHT22;3416;53.074;8.822;2023-04-15T06:19:19;9.50;99.90
6758;DHT22;3416;53.074;8.822;2023-04-15T06:21:47;9.50;99.90
6758;DHT22;3416;53.074;8.822;2023-04-15T06:24:15;9.50;99.90
6758;DHT22;3416;53.074;8.822;2023-04-15T06:26:42;9.60;99.90
6758;DHT22;3416;53.074;8.822;2023-04-15T06:29:09;9.60;99.90
6758;DHT22;3416;53.074;8.822;2023-04-15T06:31:36;9.50;99.90
6758;DHT22;3416;53.074;8.822;2023-04-15T06:34:03;9.60;99.90
6758;DHT22;3416;53.074;8.822;2023-04-15T06:36:32;9.70;99.90
6758;DHT22;3416;53.074;8.822;2023-04-15T06:38:59;9.60;99.90
6758;DHT22;3416;53.074;8.822;2023-04-15T06:41:27;9.60;99.90
6758;DHT22;3416;53.074;8.822;2023-04-15T06:43:55;9.70;99.90
6758;DHT22;3416;53.074;8.822;2023-04-15T06:46:22;9.70;99.90
6758;DHT22;3416;53.074;8.822;2023-04-15T06:48:49;9.70;99.90
6758;DHT22;3416;53.074;8.822;2023-04-15T06:51:17;9.70;99.90
6758;DHT22;3416;53.074;8.822;2023-04-15T06:53:45;9.70;99.90
6758;DHT22;3416;53.074;8.822;2023-04-15T06:56:12;9.80;99.90
6758;DHT22;3416;53.074;8.822;2023-04-15T06:58:38;9.90;99.90
6758;DHT22;3416;53.074;8.822;2023-04-15T07:01:05;9.80;99.90
6758;DHT22;3416;53.074;8.822;2023-04-15T07:03:32;9.90;99.90
6758;DHT22;3416;53.074;8.822;2023-04-15T07:05:59;9.90;99.90
6758;DHT22;3416;53.074;8.822;2023-04-15T07:08:30;9.90;99.90
6758;DHT22;3416;53.074;8.822;2023-04-15T07:10:59;10.00;99.90
6758;DHT22;3416;53.074;8.822;2023-04-15T07:13:26;10.00;99.90
6758;DHT22;3416;53.074;8.822;2023-04-15T07:15:53;10.00;99.90
6758;DHT22;3416;53.074;8.822;2023-04-15T07:18:20;9.90;99.90
6758;DHT22;3416;53.074;8.822;2023-04-15T07:20:47;10.00;99.90
6758;DHT22;3416;53.074;8.822;2023-04-15T07:23:14;10.00;99.90
6758;DHT22;3416;53.074;8.822;2023-04-15T07:25:40;10.00;99.90
6758;DHT22;3416;53.074;8.822;2023-04-15T07:28:09;10.00;99.90
6758;DHT22;3416;53.074;8.822;2023-04-15T07:30:36;10.10;99.90
6758;DHT22;3416;53.074;8.822;2023-04-15T07:33:03;10.00;99.90
6758;DHT22;3416;53.074;8.822;2023-04-15T07:35:30;10.00;99.90
6758;DHT22;3416;53.074;8.822;2023-04-15T07:37:57;10.00;99.90
6758;DHT22;3416;53.074;8.822;2023-04-15T07:40:24;10.10;99.90
6758;DHT22;3416;53.074;8.822;2023-04-15T07:42:51;10.10;99.90
6758;DHT22;3416;53.074;8.822;2023-04-15T07:45:19;10.20;99.90
6758;DHT22;3416;53.074;8.822;2023-04-15T07:47:46;10.20;99.90
6758;DHT22;3416;53.074;8.822;2023-04-15T07:50:13;10.30;99.90
6758;DHT22;3416;53.074;8.822;2023-04-15T07:52:40;10.40;99.90
6758;DHT22;3416;53.074;8.822;2023-04-15T07:55:08;10.40;99.90
6758;DHT22;3416;53.074;8.822;2023-04-15T07:57:36;10.50;99.90
6758;DHT22;3416;53.074;8.822;2023-04-15T08:00:05;10.80;99.90
6758;DHT22;3416;53.074;8.822;2023-04-15T08:02:34;10.80;99.90
6758;DHT22;3416;53.074;8.822;2023-04-15T08:05:01;10.70;99.90
6758;DHT22;3416;53.074;8.822;2023-04-15T08:07:29;10.60;99.90
6758;DHT22;3416;53.074;8.822;2023-04-15T08:09:55;10.70;99.90
6758;DHT22;3416;53.074;8.822;2023-04-15T08:12:22;10.70;99.90
6758;DHT22;3416;53.074;8.822;2023-04-15T08:14:49;10.60;99.90
6758;DHT22;3416;53.074;8.822;2023-04-15T08:17:31;10.60;99.90
6758;DHT22;3416;53.074;8.822;2023-04-15T08:20:02;10.60;99.90
6758;DHT22;3416;53.074;8.822;2023-04-15T08:22:30;10.50;99.90
6758;DHT22;3416;53.074;8.822;2023-04-15T08:24:57;10.50;99.90
6758;DHT22;3416;53.074;8.822;2023-04-15T08:27:24;10.50;99.90
6758;DHT22;3416;53.074;8.822;2023-04-15T08:29:50;10.50;99.90
6758;DHT22;3416;53.074;8.822;2023-04-15T08:32:17;10.60;99.90
6758;DHT22;3416;53.074;8.822;2023-04-15T08:34:44;10.60;99.90
6758;DHT22;3416;53.074;8.822;2023-04-15T08:37:12;10.60;99.90
6758;DHT22;3416;53.074;8.822;2023-04-15T08:39:39;10.60;99.90
6758;DHT22;3416;53.074;8.822;2023-04-15T08:42:10;10.60;99.90
6758;DHT22;3416;53.074;8.822;2023-04-15T08:44:38;10.60;99.90
6758;DHT22;3416;53.074;8.822;2023-04-15T08:47:07;10.60;99.90
6758;DHT22;3416;53.074;8.822;2023-04-15T08:49:35;10.60;99.90
6758;DHT22;3416;53.074;8.822;2023-04-15T08:52:05;10.60;99.90
6758;DHT22;3416;53.074;8.822;2023-04-15T08:54:34;10.70;99.90
6758;DHT22;3416;53.074;8.822;2023-04-15T08:57:02;10.60;99.90
6758;DHT22;3416;53.074;8.822;2023-04-15T08:59:29;10.70;99.90
6758;DHT22;3416;53.074;8.822;2023-04-15T09:02:00;10.80;99.90
6758;DHT22;3416;53.074;8.822;2023-04-15T09:04:27;10.80;99.90
6758;DHT22;3416;53.074;8.822;2023-04-15T09:06:54;10.90;99.90
6758;DHT22;3416;53.074;8.822;2023-04-15T09:09:21;10.90;99.90
6758;DHT22;3416;53.074;8.822;2023-04-15T09:11:51;10.90;99.90
6758;DHT22;3416;53.074;8.822;2023-04-15T09:14:18;11.00;99.90
6758;DHT22;3416;53.074;8.822;2023-04-15T09:16:58;11.00;99.90
6758;DHT22;3416;53.074;8.822;2023-04-15T09:19:26;10.90;99.90
6758;DHT22;3416;53.074;8.822;2023-04-15T09:21:54;11.00;99.90
6758;DHT22;3416;53.074;8.822;2023-04-15T09:24:22;11.00;99.90
6758;DHT22;3416;53.074;8.822;2023-04-15T09:26:53;11.10;99.90
6758;DHT22;3416;53.074;8.822;2023-04-15T09:29:23;11.10;99.90
6758;DHT22;3416;53.074;8.822;2023-04-15T09:31:51;11.10;99.90
6758;DHT22;3416;53.074;8.822;2023-04-15T09:34:18;11.10;99.90
6758;DHT22;3416;53.074;8.822;2023-04-15T09:36:53;11.20;99.90
6758;DHT22;3416;53.074;8.822;2023-04-15T09:39:20;11.20;99.90
6758;DHT22;3416;53.074;8.822;2023-04-15T09:42:04;11.30;99.90
6758;DHT22;3416;53.074;8.822;2023-04-15T09:44:32;11.30;99.90
6758;DHT22;3416;53.074;8.822;2023-04-15T09:46:59;11.40;99.90
6758;DHT22;3416;53.074;8.822;2023-04-15T09:49:26;11.40;99.90
6758;DHT22;3416;53.074;8.822;2023-04-15T09:52:00;11.40;99.90
6758;DHT22;3416;53.074;8.822;2023-04-15T09:54:39;11.50;99.90
6758;DHT22;3416;53.074;8.822;2023-04-15T09:57:08;11.40;99.90
6758;DHT22;3416;53.074;8.822;2023-04-15T09:59:36;11.40;99.90
6758;DHT22;3416;53.074;8.822;2023-04-15T10:02:04;11.50;99.90
6758;DHT22;3416;53.074;8.822;2023-04-15T10:04:34;11.50;99.90
6758;DHT22;3416;53.074;8.822;2023-04-15T10:07:03;11.50;99.90
6758;DHT22;3416;53.074;8.822;2023-04-15T10:09:31;11.50;99.90
6758;DHT22;3416;53.074;8.822;2023-04-15T10:11:59;11.50;99.90
6758;DHT22;3416;53.074;8.822;2023-04-15T10:14:31;11.60;99.90
6758;DHT22;3416;53.074;8.822;2023-04-15T10:17:00;11.60;99.90
6758;DHT22;3416;53.074;8.822;2023-04-15T10:19:30;11.70;99.90
6758;DHT22;3416;53.074;8.822;2023-04-15T10:21:57;11.70;99.90
6758;DHT22;3416;53.074;8.822;2023-04-15T10:24:24;11.80;99.90
6758;DHT22;3416;53.074;8.822;2023-04-15T10:26:51;11.90;99.90
6758;DHT22;3416;53.074;8.822;2023-04-15T10:29:19;11.90;99.90
6758;DHT22;3416;53.074;8.822;2023-04-15T10:31:47;11.90;99.90
6758;DHT22;3416;53.074;8.822;2023-04-15T10:34:14;12.20;99.90
6758;DHT22;3416;53.074;8.822;2023-04-15T10:36:42;12.10;99.90
6758;DHT22;3416;53.074;8.822;2023-04-15T10:39:42;12.00;99.90
6758;DHT22;3416;53.074;8.822;2023-04-15T10:42:10;12.00;99.90
6758;DHT22;3416;53.074;8.822;2023-04-15T10:44:37;12.10;99.90
6758;DHT22;3416;53.074;8.822;2023-04-15T10:47:09;12.10;99.90
6758;DHT22;3416;53.074;8.822;2023-04-15T10:49:43;12.10;99.90
6758;DHT22;3416;53.074;8.822;2023-04-15T10:52:11;12.10;99.90
6758;DHT22;3416;53.074;8.822;2023-04-15T10:54:38;12.20;99.90
6758;DHT22;3416;53.074;8.822;2023-04-15T10:57:13;12.20;99.90
6758;DHT22;3416;53.074;8.822;2023-04-15T10:59:58;12.20;99.90
6758;DHT22;3416;53.074;8.822;2023-04-15T11:02:39;12.10;99.90
6758;DHT22;3416;53.074;8.822;2023-04-15T11:05:07;12.10;99.90
6758;DHT22;3416;53.074;8.822;2023-04-15T11:07:51;12.10;99.90
6758;DHT22;3416;53.074;8.822;2023-04-15T11:10:52;12.10;99.90
6758;DHT22;3416;53.074;8.822;2023-04-15T11:13:28;12.10;99.90
6758;DHT22;3416;53.074;8.822;2023-04-15T11:16:01;12.10;99.90
6758;DHT22;3416;53.074;8.822;2023-04-15T11:18:31;12.10;99.90
6758;DHT22;3416;53.074;8.822;2023-04-15T11:21:01;12.00;99.90
6758;DHT22;3416;53.074;8.822;2023-04-15T11:23:31;12.00;99.90
6758;DHT22;3416;53.074;8.822;2023-04-15T11:25:59;12.00;99.90
6758;DHT22;3416;53.074;8.822;2023-04-15T11:28:26;12.00;99.90
6758;DHT22;3416;53.074;8.822;2023-04-15T11:30:54;12.00;99.90
6758;DHT22;3416;53.074;8.822;2023-04-15T11:33:22;12.00;99.90
6758;DHT22;3416;53.074;8.822;2023-04-15T11:35:51;11.90;99.90
6758;DHT22;3416;53.074;8.822;2023-04-15T11:38:21;11.90;99.90
6758;DHT22;3416;53.074;8.822;2023-04-15T11:40:49;11.90;99.90
6758;DHT22;3416;53.074;8.822;2023-04-15T11:43:18;11.90;99.90
6758;DHT22;3416;53.074;8.822;2023-04-15T11:45:53;11.90;99.90
6758;DHT22;3416;53.074;8.822;2023-04-15T11:48:25;12.00;99.90
6758;DHT22;3416;53.074;8.822;2023-04-15T11:50:56;12.00;99.90
6758;DHT22;3416;53.074;8.822;2023-04-15T11:53:23;12.00;99.90
6758;DHT22;3416;53.074;8.822;2023-04-15T11:55:51;11.90;99.90
6758;DHT22;3416;53.074;8.822;2023-04-15T11:58:25;12.00;99.90
6758;DHT22;3416;53.074;8.822;2023-04-15T12:00:53;11.90;99.90
6758;DHT22;3416;53.074;8.822;2023-04-15T12:03:23;12.00;99.90
6758;DHT22;3416;53.074;8.822;2023-04-15T12:06:19;12.00;99.90
6758;DHT22;3416;53.074;8.822;2023-04-15T12:09:07;12.10;99.90
6758;DHT22;3416;53.074;8.822;2023-04-15T12:11:37;12.10;99.90
6758;DHT22;3416;53.074;8.822;2023-04-15T12:14:11;12.00;99.90
6758;DHT22;3416;53.074;8.822;2023-04-15T12:16:46;12.00;99.90
6758;DHT22;3416;53.074;8.822;2023-04-15T12:19:14;12.00;99.90
6758;DHT22;3416;53.074;8.822;2023-04-15T12:21:45;12.10;99.90
6758;DHT22;3416;53.074;8.822;2023-04-15T12:24:13;12.10;99.90
6758;DHT22;3416;53.074;8.822;2023-04-15T12:26:44;12.20;99.90
6758;DHT22;3416;53.074;8.822;2023-04-15T12:29:12;12.20;99.90
6758;DHT22;3416;53.074;8.822;2023-04-15T12:31:46;12.30;99.90
6758;DHT22;3416;53.074;8.822;2023-04-15T12:34:14;12.40;99.90
6758;DHT22;3416;53.074;8.822;2023-04-15T12:36:41;12.40;99.90
6758;DHT22;3416;53.074;8.822;2023-04-15T12:39:09;12.30;99.90
6758;DHT22;3416;53.074;8.822;2023-04-15T12:41:36;12.40;99.90
6758;DHT22;3416;53.074;8.822;2023-04-15T12:44:03;12.30;99.90
6758;DHT22;3416;53.074;8.822;2023-04-15T12:46:29;12.40;99.90
6758;DHT22;3416;53.074;8.822;2023-04-15T12:48:57;12.40;99.90
6758;DHT22;3416;53.074;8.822;2023-04-15T12:52:03;12.40;99.90
6758;DHT22;3416;53.074;8.822;2023-04-15T12:54:25;12.50;99.90
6758;DHT22;3416;53.074;8.822;2023-04-15T12:56:53;12.50;99.90
6758;DHT22;3416;53.074;8.822;2023-04-15T12:59:20;12.50;99.90
6758;DHT22;3416;53.074;8.822;2023-04-15T13:01:49;12.50;99.90
6758;DHT22;3416;53.074;8.822;2023-04-15T13:04:18;12.60;99.90
6758;DHT22;3416;53.074;8.822;2023-04-15T13:06:45;12.60;99.90
6758;DHT22;3416;53.074;8.822;2023-04-15T13:09:12;12.70;99.90
6758;DHT22;3416;53.074;8.822;2023-04-15T13:11:40;12.80;99.90
6758;DHT22;3416;53.074;8.822;2023-04-15T13:14:08;12.90;99.90
6758;DHT22;3416;53.074;8.822;2023-04-15T13:16:35;13.00;99.90
6758;DHT22;3416;53.074;8.822;2023-04-15T13:19:03;13.00;99.90
6758;DHT22;3416;53.074;8.822;2023-04-15T13:21:30;13.10;99.90
6758;DHT22;3416;53.074;8.822;2023-04-15T13:23:59;13.10;99.90
6758;DHT22;3416;53.074;8.822;2023-04-15T13:26:26;13.30;99.90
6758;DHT22;3416;53.074;8.822;2023-04-15T13:28:58;13.50;99.90
6758;DHT22;3416;53.074;8.822;2023-04-15T13:31:28;13.80;99.90
6758;DHT22;3416;53.074;8.822;2023-04-15T13:33:55;14.00;99.90
6758;DHT22;3416;53.074;8.822;2023-04-15T13:36:24;14.30;99.90
6758;DHT22;3416;53.074;8.822;2023-04-15T13:38:52;14.70;99.90
6758;DHT22;3416;53.074;8.822;2023-04-15T13:41:19;15.00;99.90
6758;DHT22;3416;53.074;8.822;2023-04-15T13:43:45;15.20;99.90
6758;DHT22;3416;53.074;8.822;2023-04-15T13:46:14;15.30;99.90
6758;DHT22;3416;53.074;8.822;2023-04-15T13:48:41;15.40;99.90
6758;DHT22;3416;53.074;8.822;2023-04-15T13:51:07;15.50;99.90
6758;DHT22;3416;53.074;8.822;2023-04-15T13:53:34;15.50;99.90
6758;DHT22;3416;53.074;8.822;2023-04-15T13:56:07;15.40;99.90
6758;DHT22;3416;53.074;8.822;2023-04-15T13:58:35;15.20;99.90
6758;DHT22;3416;53.074;8.822;2023-04-15T14:01:03;15.20;99.90
6758;DHT22;3416;53.074;8.822;2023-04-15T14:03:32;15.30;99.90
6758;DHT22;3416;53.074;8.822;2023-04-15T14:05:59;15.30;99.90
6758;DHT22;3416;53.074;8.822;2023-04-15T14:08:25;15.50;99.90
6758;DHT22;3416;53.074;8.822;2023-04-15T14:10:52;15.70;99.90
6758;DHT22;3416;53.074;8.822;2023-04-15T14:13:19;15.90;99.90
6758;DHT22;3416;53.074;8.822;2023-04-15T14:15:46;16.00;99.90
6758;DHT22;3416;53.074;8.822;2023-04-15T14:18:13;16.00;99.90
6758;DHT22;3416;53.074;8.822;2023-04-15T14:20:41;15.90;99.90
6758;DHT22;3416;53.074;8.822;2023-04-15T14:23:13;15.70;99.90
6758;DHT22;3416;53.074;8.822;2023-04-15T14:25:40;15.80;99.90
6758;DHT22;3416;53.074;8.822;2023-04-15T14:28:07;15.70;99.90
6758;DHT22;3416;53.074;8.822;2023-04-15T14:30:35;15.60;99.90
6758;DHT22;3416;53.074;8.822;2023-04-15T14:33:02;15.50;99.90
6758;DHT22;3416;53.074;8.822;2023-04-15T14:35:29;15.60;99.90
6758;DHT22;3416;53.074;8.822;2023-04-15T14:37:58;15.50;99.90
6758;DHT22;3416;53.074;8.822;2023-04-15T14:40:26;15.40;99.90
6758;DHT22;3416;53.074;8.822;2023-04-15T14:42:53;15.40;99.90
6758;DHT22;3416;53.074;8.822;2023-04-15T14:45:20;15.30;99.90
6758;DHT22;3416;53.074;8.822;2023-04-15T14:47:47;15.40;99.90
6758;DHT22;3416;53.074;8.822;2023-04-15T14:50:14;15.50;99.90
6758;DHT22;3416;53.074;8.822;2023-04-15T14:52:40;15.40;99.90
6758;DHT22;3416;53.074;8.822;2023-04-15T14:55:12;15.50;99.90
6758;DHT22;3416;53.074;8.822;2023-04-15T14:57:40;15.30;99.90
6758;DHT22;3416;53.074;8.822;2023-04-15T15:00:08;15.20;99.90
6758;DHT22;3416;53.074;8.822;2023-04-15T15:02:36;15.20;99.90
6758;DHT22;3416;53.074;8.822;2023-04-15T15:05:04;14.90;99.90
6758;DHT22;3416;53.074;8.822;2023-04-15T15:07:30;14.90;99.90
6758;DHT22;3416;53.074;8.822;2023-04-15T15:09:57;15.00;99.90
6758;DHT22;3416;53.074;8.822;2023-04-15T15:12:27;15.10;99.90
6758;DHT22;3416;53.074;8.822;2023-04-15T15:14:54;15.10;99.90
6758;DHT22;3416;53.074;8.822;2023-04-15T15:17:21;15.40;99.90
6758;DHT22;3416;53.074;8.822;2023-04-15T15:19:48;15.60;99.90
6758;DHT22;3416;53.074;8.822;2023-04-15T15:22:15;15.60;99.90
6758;DHT22;3416;53.074;8.822;2023-04-15T15:24:42;15.70;99.90
6758;DHT22;3416;53.074;8.822;2023-04-15T15:27:09;15.80;99.90
6758;DHT22;3416;53.074;8.822;2023-04-15T15:29:37;15.80;99.90
6758;DHT22;3416;53.074;8.822;2023-04-15T15:32:05;16.00;99.90
6758;DHT22;3416;53.074;8.822;2023-04-15T15:34:32;16.10;99.90
6758;DHT22;3416;53.074;8.822;2023-04-15T15:36:59;16.10;99.90
6758;DHT22;3416;53.074;8.822;2023-04-15T15:39:26;16.10;99.90
6758;DHT22;3416;53.074;8.822;2023-04-15T15:41:54;16.10;99.90
6758;DHT22;3416;53.074;8.822;2023-04-15T15:44:20;16.10;99.90
6758;DHT22;3416;53.074;8.822;2023-04-15T15:46:49;16.00;99.90
6758;DHT22;3416;53.074;8.822;2023-04-15T15:49:16;15.90;99.90
6758;DHT22;3416;53.074;8.822;2023-04-15T15:51:44;15.80;99.90
6758;DHT22;3416;53.074;8.822;2023-04-15T15:54:11;15.80;99.90
6758;DHT22;3416;53.074;8.822;2023-04-15T15:56:38;15.90;99.90
6758;DHT22;3416;53.074;8.822;2023-04-15T15:59:06;15.90;99.90
6758;DHT22;3416;53.074;8.822;2023-04-15T16:01:33;15.70;99.90
6758;DHT22;3416;53.074;8.822;2023-04-15T16:04:02;15.70;99.90
6758;DHT22;3416;53.074;8.822;2023-04-15T16:06:28;15.80;99.90
6758;DHT22;3416;53.074;8.822;2023-04-15T16:08:56;15.60;99.90
6758;DHT22;3416;53.074;8.822;2023-04-15T16:11:22;15.50;99.90
6758;DHT22;3416;53.074;8.822;2023-04-15T16:13:51;15.50;99.90
6758;DHT22;3416;53.074;8.822;2023-04-15T16:16:18;15.60;99.90
6758;DHT22;3416;53.074;8.822;2023-04-15T16:18:45;15.60;99.90